sensor_id;sensor_type;location;lat;lon;timestamp;P1;durP1;ratioP1;P2;durP2;ratioP2
48881;SDS011;57063;51.406;-2.402;2022-07-22T00:02:07;7.93;;;2.72;;
48881;SDS011;57063;51.406;-2.402;2022-07-22T00:04:32;5.97;;;2.80;;
48881;SDS011;57063;51.406;-2.402;2022-07-22T00:06:58;4.80;;;2.17;;
48881;SDS011;57063;51.406;-2.402;2022-07-22T00:09:23;8.60;;;2.38;;
48881;SDS011;57063;51.406;-2.402;2022-07-22T00:11:49;5.47;;;2.38;;
48881;SDS011;57063;51.406;-2.402;2022-07-22T00:14:14;9.07;;;2.97;;
48881;SDS011;57063;51.406;-2.402;2022-07-22T00:16:40;6.20;;;2.95;;
48881;SDS011;57063;51.406;-2.402;2022-07-22T00:19:05;10.82;;;2.70;;
48881;SDS011;57063;51.406;-2.402;2022-07-22T00:21:31;7.68;;;2.42;;
48881;SDS011;57063;51.406;-2.402;2022-07-22T00:23:56;7.38;;;3.15;;
48881;SDS011;57063;51.406;-2.402;2022-07-22T00:26:21;6.90;;;2.80;;
48881;SDS011;57063;51.406;-2.402;2022-07-22T00:28:47;6.72;;;3.15;;
48881;SDS011;57063;51.406;-2.402;2022-07-22T00:31:12;7.80;;;2.97;;
48881;SDS011;57063;51.406;-2.402;2022-07-22T00:33:37;8.43;;;3.30;;
48881;SDS011;57063;51.406;-2.402;2022-07-22T00:36:03;6.82;;;3.67;;
48881;SDS011;57063;51.406;-2.402;2022-07-22T00:38:28;9.65;;;3.67;;
48881;SDS011;57063;51.406;-2.402;2022-07-22T00:40:54;10.15;;;5.00;;
48881;SDS011;57063;51.406;-2.402;2022-07-22T00:43:19;13.30;;;4.85;;
48881;SDS011;57063;51.406;-2.402;2022-07-22T00:45:45;5.93;;;4.15;;
48881;SDS011;57063;51.406;-2.402;2022-07-22T00:48:10;8.43;;;4.65;;
48881;SDS011;57063;51.406;-2.402;2022-07-22T00:50:36;9.45;;;4.25;;
48881;SDS011;57063;51.406;-2.402;2022-07-22T00:53:01;5.72;;;4.00;;
48881;SDS011;57063;51.406;-2.402;2022-07-22T00:55:27;13.40;;;4.50;;
48881;SDS011;57063;51.406;-2.402;2022-07-22T00:57:53;8.27;;;4.55;;
48881;SDS011;57063;51.406;-2.402;2022-07-22T01:00:19;12.20;;;5.40;;
48881;SDS011;57063;51.406;-2.402;2022-07-22T01:02:46;7.45;;;4.03;;
48881;SDS011;57063;51.406;-2.402;2022-07-22T01:05:12;5.65;;;4.43;;
48881;SDS011;57063;51.406;-2.402;2022-07-22T01:07:37;6.63;;;4.38;;
48881;SDS011;57063;51.406;-2.402;2022-07-22T01:10:04;6.88;;;3.92;;
48881;SDS011;57063;51.406;-2.402;2022-07-22T01:12:31;9.18;;;4.20;;
48881;SDS011;57063;51.406;-2.402;2022-07-22T01:14:57;9.25;;;4.50;;
48881;SDS011;57063;51.406;-2.402;2022-07-22T01:17:22;12.23;;;4.53;;
48881;SDS011;57063;51.406;-2.402;2022-07-22T01:19:48;8.45;;;4.40;;
48881;SDS011;57063;51.406;-2.402;2022-07-22T01:22:14;9.32;;;5.03;;
48881;SDS011;57063;51.406;-2.402;2022-07-22T01:24:39;10.20;;;4.00;;
48881;SDS011;57063;51.406;-2.402;2022-07-22T01:27:04;6.65;;;4.30;;
48881;SDS011;57063;51.406;-2.402;2022-07-22T01:29:30;5.95;;;3.83;;
48881;SDS011;57063;51.406;-2.402;2022-07-22T01:31:55;12.50;;;5.18;;
48881;SDS011;57063;51.406;-2.402;2022-07-22T01:34:21;12.07;;;5.00;;
48881;SDS011;57063;51.406;-2.402;2022-07-22T01:36:47;8.32;;;4.60;;
48881;SDS011;57063;51.406;-2.402;2022-07-22T01:39:12;8.63;;;4.65;;
48881;SDS011;57063;51.406;-2.402;2022-07-22T01:41:39;8.43;;;4.35;;
48881;SDS011;57063;51.406;-2.402;2022-07-22T01:44:04;7.65;;;4.03;;
48881;SDS011;57063;51.406;-2.402;2022-07-22T01:46:30;8.68;;;4.80;;
48881;SDS011;57063;51.406;-2.402;2022-07-22T01:48:55;11.43;;;4.95;;
48881;SDS011;57063;51.406;-2.402;2022-07-22T01:51:21;9.32;;;5.25;;
48881;SDS011;57063;51.406;-2.402;2022-07-22T01:53:47;13.65;;;4.47;;
48881;SDS011;57063;51.406;-2.402;2022-07-22T01:56:12;9.70;;;4.00;;
48881;SDS011;57063;51.406;-2.402;2022-07-22T01:58:38;10.13;;;5.45;;
48881;SDS011;57063;51.406;-2.402;2022-07-22T02:01:03;10.82;;;4.22;;
48881;SDS011;57063;51.406;-2.402;2022-07-22T02:03:29;9.50;;;4.05;;
48881;SDS011;57063;51.406;-2.402;2022-07-22T02:05:54;9.73;;;4.45;;
48881;SDS011;57063;51.406;-2.402;2022-07-22T02:08:20;10.23;;;4.68;;
48881;SDS011;57063;51.406;-2.402;2022-07-22T02:10:46;14.07;;;4.53;;
48881;SDS011;57063;51.406;-2.402;2022-07-22T02:13:12;9.35;;;3.88;;
48881;SDS011;57063;51.406;-2.402;2022-07-22T02:15:38;12.30;;;4.35;;
48881;SDS011;57063;51.406;-2.402;2022-07-22T02:18:10;7.20;;;4.10;;
48881;SDS011;57063;51.406;-2.402;2022-07-22T02:20:39;11.10;;;4.57;;
48881;SDS011;57063;51.406;-2.402;2022-07-22T02:23:05;10.00;;;4.18;;
48881;SDS011;57063;51.406;-2.402;2022-07-22T02:25:31;15.15;;;5.20;;
48881;SDS011;57063;51.406;-2.402;2022-07-22T02:27:56;10.98;;;3.70;;
48881;SDS011;57063;51.406;-2.402;2022-07-22T02:30:22;14.98;;;5.22;;
48881;SDS011;57063;51.406;-2.402;2022-07-22T02:32:47;8.23;;;3.40;;
48881;SDS011;57063;51.406;-2.402;2022-07-22T02:35:12;10.38;;;4.43;;
48881;SDS011;57063;51.406;-2.402;2022-07-22T02:37:38;11.60;;;3.85;;
48881;SDS011;57063;51.406;-2.402;2022-07-22T02:40:04;7.55;;;3.00;;
48881;SDS011;57063;51.406;-2.402;2022-07-22T02:42:30;7.07;;;3.20;;
48881;SDS011;57063;51.406;-2.402;2022-07-22T02:44:55;11.52;;;4.22;;
48881;SDS011;57063;51.406;-2.402;2022-07-22T02:47:21;12.15;;;3.13;;
48881;SDS011;57063;51.406;-2.402;2022-07-22T02:49:46;10.35;;;3.40;;
48881;SDS011;57063;51.406;-2.402;2022-07-22T02:52:11;14.25;;;3.72;;
48881;SDS011;57063;51.406;-2.402;2022-07-22T02:54:37;10.63;;;3.53;;
48881;SDS011;57063;51.406;-2.402;2022-07-22T02:57:02;8.32;;;2.75;;
48881;SDS011;57063;51.406;-2.402;2022-07-22T02:59:27;10.15;;;3.47;;
48881;SDS011;57063;51.406;-2.402;2022-07-22T03:01:53;9.65;;;3.72;;
48881;SDS011;57063;51.406;-2.402;2022-07-22T03:04:18;7.55;;;2.97;;
48881;SDS011;57063;51.406;-2.402;2022-07-22T03:06:44;7.97;;;2.92;;
48881;SDS011;57063;51.406;-2.402;2022-07-22T03:09:09;8.13;;;2.65;;
48881;SDS011;57063;51.406;-2.402;2022-07-22T03:11:34;10.63;;;3.10;;
48881;SDS011;57063;51.406;-2.402;2022-07-22T03:14:00;14.07;;;3.00;;
48881;SDS011;57063;51.406;-2.402;2022-07-22T03:16:25;8.93;;;3.30;;
48881;SDS011;57063;51.406;-2.402;2022-07-22T03:18:50;15.77;;;3.67;;
48881;SDS011;57063;51.406;-2.402;2022-07-22T03:21:16;12.77;;;3.72;;
48881;SDS011;57063;51.406;-2.402;2022-07-22T03:23:41;10.25;;;3.15;;
48881;SDS011;57063;51.406;-2.402;2022-07-22T03:26:06;12.90;;;3.38;;
48881;SDS011;57063;51.406;-2.402;2022-07-22T03:28:32;10.88;;;3.55;;
48881;SDS011;57063;51.406;-2.402;2022-07-22T03:30:57;8.52;;;3.20;;
48881;SDS011;57063;51.406;-2.402;2022-07-22T03:33:23;14.00;;;3.38;;
48881;SDS011;57063;51.406;-2.402;2022-07-22T03:35:48;8.65;;;3.30;;
48881;SDS011;57063;51.406;-2.402;2022-07-22T03:38:13;10.80;;;3.65;;
48881;SDS011;57063;51.406;-2.402;2022-07-22T03:40:39;15.77;;;2.72;;
48881;SDS011;57063;51.406;-2.402;2022-07-22T03:43:04;12.60;;;2.97;;
48881;SDS011;57063;51.406;-2.402;2022-07-22T03:45:29;11.02;;;3.70;;
48881;SDS011;57063;51.406;-2.402;2022-07-22T03:47:55;15.48;;;3.88;;
48881;SDS011;57063;51.406;-2.402;2022-07-22T03:50:22;15.60;;;3.78;;
48881;SDS011;57063;51.406;-2.402;2022-07-22T03:52:48;8.18;;;3.40;;
48881;SDS011;57063;51.406;-2.402;2022-07-22T03:55:13;12.73;;;3.45;;
48881;SDS011;57063;51.406;-2.402;2022-07-22T03:57:39;13.90;;;3.35;;
48881;SDS011;57063;51.406;-2.402;2022-07-22T04:00:04;11.90;;;3.40;;
48881;SDS011;57063;51.406;-2.402;2022-07-22T04:02:31;11.38;;;3.45;;
48881;SDS011;57063;51.406;-2.402;2022-07-22T04:04:56;7.80;;;2.70;;
48881;SDS011;57063;51.406;-2.402;2022-07-22T04:07:22;13.20;;;4.30;;
48881;SDS011;57063;51.406;-2.402;2022-07-22T04:09:47;11.20;;;2.95;;
48881;SDS011;57063;51.406;-2.402;2022-07-22T04:12:13;17.95;;;3.17;;
48881;SDS011;57063;51.406;-2.402;2022-07-22T04:14:38;15.85;;;3.50;;
48881;SDS011;57063;51.406;-2.402;2022-07-22T04:17:03;16.95;;;3.88;;
48881;SDS011;57063;51.406;-2.402;2022-07-22T04:19:29;15.73;;;3.13;;
48881;SDS011;57063;51.406;-2.402;2022-07-22T04:21:54;7.50;;;2.83;;
48881;SDS011;57063;51.406;-2.402;2022-07-22T04:24:19;10.23;;;3.67;;
48881;SDS011;57063;51.406;-2.402;2022-07-22T04:26:45;10.15;;;2.95;;
48881;SDS011;57063;51.406;-2.402;2022-07-22T04:29:10;11.43;;;3.08;;
48881;SDS011;57063;51.406;-2.402;2022-07-22T04:31:36;9.82;;;3.22;;
48881;SDS011;57063;51.406;-2.402;2022-07-22T04:34:01;15.02;;;3.38;;
48881;SDS011;57063;51.406;-2.402;2022-07-22T04:36:26;11.10;;;3.00;;
48881;SDS011;57063;51.406;-2.402;2022-07-22T04:38:52;13.02;;;2.83;;
48881;SDS011;57063;51.406;-2.402;2022-07-22T04:41:17;12.98;;;3.60;;
48881;SDS011;57063;51.406;-2.402;2022-07-22T04:43:43;14.00;;;3.20;;
48881;SDS011;57063;51.406;-2.402;2022-07-22T04:46:08;9.98;;;2.38;;
48881;SDS011;57063;51.406;-2.402;2022-07-22T04:48:34;16.92;;;3.00;;
48881;SDS011;57063;51.406;-2.402;2022-07-22T04:50:59;10.52;;;2.70;;
48881;SDS011;57063;51.406;-2.402;2022-07-22T04:53:26;17.98;;;3.63;;
48881;SDS011;57063;51.406;-2.402;2022-07-22T04:55:52;12.20;;;2.85;;
48881;SDS011;57063;51.406;-2.402;2022-07-22T04:58:18;8.38;;;2.88;;
48881;SDS011;57063;51.406;-2.402;2022-07-22T05:00:43;11.88;;;2.30;;
48881;SDS011;57063;51.406;-2.402;2022-07-22T05:03:08;16.88;;;3.08;;
48881;SDS011;57063;51.406;-2.402;2022-07-22T05:05:34;9.00;;;3.53;;
48881;SDS011;57063;51.406;-2.402;2022-07-22T05:07:59;9.13;;;2.83;;
48881;SDS011;57063;51.406;-2.402;2022-07-22T05:10:25;18.65;;;3.70;;
48881;SDS011;57063;51.406;-2.402;2022-07-22T05:12:50;11.88;;;3.22;;
48881;SDS011;57063;51.406;-2.402;2022-07-22T05:15:16;12.60;;;3.15;;
48881;SDS011;57063;51.406;-2.402;2022-07-22T05:17:41;7.95;;;2.33;;
48881;SDS011;57063;51.406;-2.402;2022-07-22T05:20:06;10.50;;;3.28;;
48881;SDS011;57063;51.406;-2.402;2022-07-22T05:22:32;13.32;;;3.35;;
48881;SDS011;57063;51.406;-2.402;2022-07-22T05:24:57;9.35;;;2.17;;
48881;SDS011;57063;51.406;-2.402;2022-07-22T05:27:23;12.23;;;3.67;;
48881;SDS011;57063;51.406;-2.402;2022-07-22T05:29:48;14.98;;;2.83;;
48881;SDS011;57063;51.406;-2.402;2022-07-22T05:32:14;9.90;;;2.60;;
48881;SDS011;57063;51.406;-2.402;2022-07-22T05:34:40;6.55;;;1.95;;
48881;SDS011;57063;51.406;-2.402;2022-07-22T05:37:05;10.45;;;2.30;;
48881;SDS011;57063;51.406;-2.402;2022-07-22T05:39:30;11.13;;;2.45;;
48881;SDS011;57063;51.406;-2.402;2022-07-22T05:41:56;10.60;;;2.90;;
48881;SDS011;57063;51.406;-2.402;2022-07-22T05:44:21;7.20;;;1.80;;
48881;SDS011;57063;51.406;-2.402;2022-07-22T05:46:47;6.43;;;2.15;;
48881;SDS011;57063;51.406;-2.402;2022-07-22T05:49:12;7.10;;;1.95;;
48881;SDS011;57063;51.406;-2.402;2022-07-22T05:51:37;10.52;;;2.22;;
48881;SDS011;57063;51.406;-2.402;2022-07-22T05:54:03;8.82;;;2.17;;
48881;SDS011;57063;51.406;-2.402;2022-07-22T05:56:29;10.05;;;2.55;;
48881;SDS011;57063;51.406;-2.402;2022-07-22T05:58:54;8.55;;;1.77;;
48881;SDS011;57063;51.406;-2.402;2022-07-22T06:01:21;11.27;;;2.35;;
48881;SDS011;57063;51.406;-2.402;2022-07-22T06:03:46;8.95;;;2.90;;
48881;SDS011;57063;51.406;-2.402;2022-07-22T06:06:12;9.05;;;1.60;;
48881;SDS011;57063;51.406;-2.402;2022-07-22T06:08:37;4.93;;;1.38;;
48881;SDS011;57063;51.406;-2.402;2022-07-22T06:11:02;15.93;;;2.72;;
48881;SDS011;57063;51.406;-2.402;2022-07-22T06:13:28;8.18;;;1.70;;
48881;SDS011;57063;51.406;-2.402;2022-07-22T06:15:53;8.55;;;1.58;;
48881;SDS011;57063;51.406;-2.402;2022-07-22T06:18:18;12.70;;;2.50;;
48881;SDS011;57063;51.406;-2.402;2022-07-22T06:20:44;8.95;;;2.30;;
48881;SDS011;57063;51.406;-2.402;2022-07-22T06:23:10;5.72;;;1.90;;
48881;SDS011;57063;51.406;-2.402;2022-07-22T06:25:35;8.32;;;2.08;;
48881;SDS011;57063;51.406;-2.402;2022-07-22T06:28:01;8.55;;;2.13;;
48881;SDS011;57063;51.406;-2.402;2022-07-22T06:30:26;9.48;;;2.28;;
48881;SDS011;57063;51.406;-2.402;2022-07-22T06:32:52;5.82;;;1.50;;
48881;SDS011;57063;51.406;-2.402;2022-07-22T06:35:18;8.77;;;1.85;;
48881;SDS011;57063;51.406;-2.402;2022-07-22T06:37:43;11.00;;;2.05;;
48881;SDS011;57063;51.406;-2.402;2022-07-22T06:40:09;5.50;;;1.58;;
48881;SDS011;57063;51.406;-2.402;2022-07-22T06:42:35;9.23;;;1.63;;
48881;SDS011;57063;51.406;-2.402;2022-07-22T06:45:00;7.95;;;1.60;;
48881;SDS011;57063;51.406;-2.402;2022-07-22T06:47:25;8.70;;;1.63;;
48881;SDS011;57063;51.406;-2.402;2022-07-22T06:49:51;4.90;;;1.50;;
48881;SDS011;57063;51.406;-2.402;2022-07-22T06:52:16;10.07;;;2.80;;
48881;SDS011;57063;51.406;-2.402;2022-07-22T06:54:41;7.68;;;1.80;;
48881;SDS011;57063;51.406;-2.402;2022-07-22T06:57:07;7.88;;;1.67;;
48881;SDS011;57063;51.406;-2.402;2022-07-22T06:59:32;13.50;;;2.40;;
48881;SDS011;57063;51.406;-2.402;2022-07-22T07:01:57;9.70;;;2.47;;
48881;SDS011;57063;51.406;-2.402;2022-07-22T07:04:23;6.90;;;1.73;;
48881;SDS011;57063;51.406;-2.402;2022-07-22T07:06:48;6.88;;;1.67;;
48881;SDS011;57063;51.406;-2.402;2022-07-22T07:09:13;15.60;;;2.15;;
48881;SDS011;57063;51.406;-2.402;2022-07-22T07:11:39;11.32;;;2.05;;
48881;SDS011;57063;51.406;-2.402;2022-07-22T07:14:04;12.30;;;2.70;;
48881;SDS011;57063;51.406;-2.402;2022-07-22T07:16:29;9.73;;;1.90;;
48881;SDS011;57063;51.406;-2.402;2022-07-22T07:18:55;8.63;;;2.05;;
48881;SDS011;57063;51.406;-2.402;2022-07-22T07:21:20;8.73;;;2.55;;
48881;SDS011;57063;51.406;-2.402;2022-07-22T07:23:46;7.53;;;2.30;;
48881;SDS011;57063;51.406;-2.402;2022-07-22T07:26:12;9.73;;;2.38;;
48881;SDS011;57063;51.406;-2.402;2022-07-22T07:28:38;7.22;;;1.83;;
48881;SDS011;57063;51.406;-2.402;2022-07-22T07:31:03;5.93;;;1.40;;
48881;SDS011;57063;51.406;-2.402;2022-07-22T07:33:29;6.00;;;1.92;;
48881;SDS011;57063;51.406;-2.402;2022-07-22T07:35:54;8.98;;;1.70;;
48881;SDS011;57063;51.406;-2.402;2022-07-22T07:38:20;9.60;;;2.25;;
48881;SDS011;57063;51.406;-2.402;2022-07-22T07:40:45;11.57;;;2.00;;
48881;SDS011;57063;51.406;-2.402;2022-07-22T07:43:10;12.23;;;2.15;;
48881;SDS011;57063;51.406;-2.402;2022-07-22T07:45:36;7.22;;;1.92;;
48881;SDS011;57063;51.406;-2.402;2022-07-22T07:48:01;5.82;;;1.83;;
48881;SDS011;57063;51.406;-2.402;2022-07-22T07:50:28;9.15;;;3.05;;
48881;SDS011;57063;51.406;-2.402;2022-07-22T07:52:53;6.95;;;1.90;;
48881;SDS011;57063;51.406;-2.402;2022-07-22T07:55:20;9.75;;;2.15;;
48881;SDS011;57063;51.406;-2.402;2022-07-22T07:57:46;5.93;;;1.52;;
48881;SDS011;57063;51.406;-2.402;2022-07-22T08:00:13;8.10;;;1.70;;
48881;SDS011;57063;51.406;-2.402;2022-07-22T08:02:40;6.25;;;1.80;;
48881;SDS011;57063;51.406;-2.402;2022-07-22T08:05:06;15.13;;;2.25;;
48881;SDS011;57063;51.406;-2.402;2022-07-22T08:07:33;11.80;;;2.38;;
48881;SDS011;57063;51.406;-2.402;2022-07-22T08:09:59;5.68;;;1.55;;
48881;SDS011;57063;51.406;-2.402;2022-07-22T08:12:24;9.07;;;2.15;;
48881;SDS011;57063;51.406;-2.402;2022-07-22T08:14:49;4.85;;;1.95;;
48881;SDS011;57063;51.406;-2.402;2022-07-22T08:17:15;5.68;;;1.67;;
48881;SDS011;57063;51.406;-2.402;2022-07-22T08:19:40;7.00;;;2.03;;
48881;SDS011;57063;51.406;-2.402;2022-07-22T08:22:05;18.48;;;2.85;;
48881;SDS011;57063;51.406;-2.402;2022-07-22T08:24:31;10.80;;;2.13;;
48881;SDS011;57063;51.406;-2.402;2022-07-22T08:26:56;9.02;;;2.78;;
48881;SDS011;57063;51.406;-2.402;2022-07-22T08:29:21;14.15;;;3.13;;
48881;SDS011;57063;51.406;-2.402;2022-07-22T08:31:47;10.50;;;2.80;;
48881;SDS011;57063;51.406;-2.402;2022-07-22T08:34:12;7.68;;;2.55;;
48881;SDS011;57063;51.406;-2.402;2022-07-22T08:36:38;8.23;;;2.63;;
48881;SDS011;57063;51.406;-2.402;2022-07-22T08:39:04;17.00;;;2.97;;
48881;SDS011;57063;51.406;-2.402;2022-07-22T08:41:32;8.15;;;2.85;;
48881;SDS011;57063;51.406;-2.402;2022-07-22T08:43:59;8.93;;;3.22;;
48881;SDS011;57063;51.406;-2.402;2022-07-22T08:46:26;9.48;;;2.47;;
48881;SDS011;57063;51.406;-2.402;2022-07-22T08:48:52;10.23;;;2.53;;
48881;SDS011;57063;51.406;-2.402;2022-07-22T08:51:20;10.70;;;3.35;;
48881;SDS011;57063;51.406;-2.402;2022-07-22T08:53:45;9.68;;;2.55;;
48881;SDS011;57063;51.406;-2.402;2022-07-22T08:56:11;9.38;;;2.45;;
48881;SDS011;57063;51.406;-2.402;2022-07-22T08:58:37;10.70;;;2.72;;
48881;SDS011;57063;51.406;-2.402;2022-07-22T09:01:10;8.05;;;2.40;;
48881;SDS011;57063;51.406;-2.402;2022-07-22T09:03:51;12.98;;;3.45;;
48881;SDS011;57063;51.406;-2.402;2022-07-22T09:06:22;13.90;;;3.08;;
48881;SDS011;57063;51.406;-2.402;2022-07-22T09:11:18;11.82;;;3.50;;
48881;SDS011;57063;51.406;-2.402;2022-07-22T09:13:45;11.68;;;3.13;;
48881;SDS011;57063;51.406;-2.402;2022-07-22T09:16:11;13.90;;;3.42;;
48881;SDS011;57063;51.406;-2.402;2022-07-22T09:18:46;10.02;;;3.20;;
48881;SDS011;57063;51.406;-2.402;2022-07-22T09:21:12;10.80;;;2.58;;
48881;SDS011;57063;51.406;-2.402;2022-07-22T09:23:39;9.15;;;2.60;;
48881;SDS011;57063;51.406;-2.402;2022-07-22T09:26:06;13.70;;;3.25;;
48881;SDS011;57063;51.406;-2.402;2022-07-22T09:28:32;12.15;;;3.40;;
48881;SDS011;57063;51.406;-2.402;2022-07-22T09:30:58;16.92;;;2.85;;
48881;SDS011;57063;51.406;-2.402;2022-07-22T09:33:23;6.78;;;2.85;;
48881;SDS011;57063;51.406;-2.402;2022-07-22T09:35:49;11.43;;;4.05;;
48881;SDS011;57063;51.406;-2.402;2022-07-22T09:38:15;9.57;;;2.88;;
48881;SDS011;57063;51.406;-2.402;2022-07-22T09:40:43;10.73;;;2.72;;
48881;SDS011;57063;51.406;-2.402;2022-07-22T09:43:11;9.68;;;3.03;;
48881;SDS011;57063;51.406;-2.402;2022-07-22T09:45:55;19.10;;;3.10;;
48881;SDS011;57063;51.406;-2.402;2022-07-22T09:48:22;9.35;;;2.70;;
48881;SDS011;57063;51.406;-2.402;2022-07-22T09:50:48;8.35;;;2.53;;
48881;SDS011;57063;51.406;-2.402;2022-07-22T09:53:16;13.43;;;2.55;;
48881;SDS011;57063;51.406;-2.402;2022-07-22T09:55:42;9.20;;;3.00;;
48881;SDS011;57063;51.406;-2.402;2022-07-22T09:58:08;8.65;;;2.53;;
48881;SDS011;57063;51.406;-2.402;2022-07-22T10:00:34;13.77;;;3.10;;
48881;SDS011;57063;51.406;-2.402;2022-07-22T10:03:01;9.27;;;2.55;;
48881;SDS011;57063;51.406;-2.402;2022-07-22T10:05:29;9.85;;;2.63;;
48881;SDS011;57063;51.406;-2.402;2022-07-22T10:07:56;6.18;;;2.28;;
48881;SDS011;57063;51.406;-2.402;2022-07-22T10:10:24;6.75;;;2.78;;
48881;SDS011;57063;51.406;-2.402;2022-07-22T10:12:53;8.60;;;2.65;;
48881;SDS011;57063;51.406;-2.402;2022-07-22T10:15:20;7.70;;;2.53;;
48881;SDS011;57063;51.406;-2.402;2022-07-22T10:17:47;16.15;;;3.20;;
48881;SDS011;57063;51.406;-2.402;2022-07-22T10:20:18;14.98;;;3.25;;
48881;SDS011;57063;51.406;-2.402;2022-07-22T10:22:46;11.00;;;3.42;;
48881;SDS011;57063;51.406;-2.402;2022-07-22T10:25:14;9.15;;;2.35;;
48881;SDS011;57063;51.406;-2.402;2022-07-22T10:30:09;10.57;;;3.17;;
48881;SDS011;57063;51.406;-2.402;2022-07-22T10:32:35;11.27;;;3.08;;
48881;SDS011;57063;51.406;-2.402;2022-07-22T10:45:27;9.63;;;3.13;;
48881;SDS011;57063;51.406;-2.402;2022-07-22T10:47:55;8.07;;;2.80;;
48881;SDS011;57063;51.406;-2.402;2022-07-22T10:53:10;7.90;;;2.65;;
48881;SDS011;57063;51.406;-2.402;2022-07-22T10:55:36;8.18;;;2.58;;
48881;SDS011;57063;51.406;-2.402;2022-07-22T11:01:16;7.93;;;3.50;;
48881;SDS011;57063;51.406;-2.402;2022-07-22T11:03:44;7.63;;;2.47;;
48881;SDS011;57063;51.406;-2.402;2022-07-22T11:06:21;8.98;;;2.85;;
48881;SDS011;57063;51.406;-2.402;2022-07-22T11:08:56;12.02;;;3.03;;
48881;SDS011;57063;51.406;-2.402;2022-07-22T11:12:04;8.68;;;3.10;;
48881;SDS011;57063;51.406;-2.402;2022-07-22T11:16:39;8.27;;;3.03;;
48881;SDS011;57063;51.406;-2.402;2022-07-22T11:19:05;9.05;;;3.03;;
48881;SDS011;57063;51.406;-2.402;2022-07-22T11:21:32;11.32;;;2.72;;
48881;SDS011;57063;51.406;-2.402;2022-07-22T11:23:59;5.50;;;2.45;;
48881;SDS011;57063;51.406;-2.402;2022-07-22T11:26:45;8.93;;;2.72;;
48881;SDS011;57063;51.406;-2.402;2022-07-22T11:29:16;8.88;;;2.58;;
48881;SDS011;57063;51.406;-2.402;2022-07-22T11:32:11;6.45;;;2.33;;
48881;SDS011;57063;51.406;-2.402;2022-07-22T11:34:38;6.72;;;2.35;;
48881;SDS011;57063;51.406;-2.402;2022-07-22T11:37:07;9.48;;;2.80;;
48881;SDS011;57063;51.406;-2.402;2022-07-22T11:39:33;10.80;;;2.90;;
48881;SDS011;57063;51.406;-2.402;2022-07-22T11:42:00;13.73;;;3.60;;
48881;SDS011;57063;51.406;-2.402;2022-07-22T11:44:31;12.55;;;3.15;;
48881;SDS011;57063;51.406;-2.402;2022-07-22T11:47:03;6.97;;;2.72;;
48881;SDS011;57063;51.406;-2.402;2022-07-22T11:49:31;7.60;;;2.92;;
48881;SDS011;57063;51.406;-2.402;2022-07-22T11:52:04;7.18;;;2.47;;
48881;SDS011;57063;51.406;-2.402;2022-07-22T11:54:34;4.80;;;2.15;;
48881;SDS011;57063;51.406;-2.402;2022-07-22T11:56:59;7.25;;;2.63;;
48881;SDS011;57063;51.406;-2.402;2022-07-22T11:59:27;7.53;;;2.97;;
48881;SDS011;57063;51.406;-2.402;2022-07-22T12:01:52;5.75;;;2.75;;
48881;SDS011;57063;51.406;-2.402;2022-07-22T12:04:24;6.88;;;2.25;;
48881;SDS011;57063;51.406;-2.402;2022-07-22T12:06:50;6.90;;;2.95;;
48881;SDS011;57063;51.406;-2.402;2022-07-22T12:11:45;5.45;;;2.47;;
48881;SDS011;57063;51.406;-2.402;2022-07-22T12:14:13;6.88;;;2.58;;
48881;SDS011;57063;51.406;-2.402;2022-07-22T12:16:41;6.25;;;2.80;;
48881;SDS011;57063;51.406;-2.402;2022-07-22T12:19:09;6.95;;;2.30;;
48881;SDS011;57063;51.406;-2.402;2022-07-22T12:21:57;8.65;;;3.38;;
48881;SDS011;57063;51.406;-2.402;2022-07-22T12:27:08;7.57;;;2.40;;
48881;SDS011;57063;51.406;-2.402;2022-07-22T12:32:06;5.50;;;2.67;;
48881;SDS011;57063;51.406;-2.402;2022-07-22T12:34:42;5.63;;;2.63;;
48881;SDS011;57063;51.406;-2.402;2022-07-22T12:39:37;6.22;;;2.55;;
48881;SDS011;57063;51.406;-2.402;2022-07-22T12:42:02;6.57;;;2.75;;
48881;SDS011;57063;51.406;-2.402;2022-07-22T12:44:28;6.57;;;2.65;;
48881;SDS011;57063;51.406;-2.402;2022-07-22T12:46:54;6.10;;;2.88;;
48881;SDS011;57063;51.406;-2.402;2022-07-22T12:49:22;8.20;;;3.13;;
48881;SDS011;57063;51.406;-2.402;2022-07-22T12:52:11;8.43;;;2.90;;
48881;SDS011;57063;51.406;-2.402;2022-07-22T12:54:39;8.77;;;3.28;;
48881;SDS011;57063;51.406;-2.402;2022-07-22T12:57:06;8.10;;;2.97;;
48881;SDS011;57063;51.406;-2.402;2022-07-22T12:59:33;8.65;;;3.10;;
48881;SDS011;57063;51.406;-2.402;2022-07-22T13:01:59;19.25;;;3.90;;
48881;SDS011;57063;51.406;-2.402;2022-07-22T13:04:25;12.07;;;3.20;;
48881;SDS011;57063;51.406;-2.402;2022-07-22T13:06:50;7.38;;;3.33;;
48881;SDS011;57063;51.406;-2.402;2022-07-22T13:09:15;8.90;;;3.30;;
48881;SDS011;57063;51.406;-2.402;2022-07-22T13:11:41;8.65;;;3.10;;
48881;SDS011;57063;51.406;-2.402;2022-07-22T13:14:10;13.60;;;6.88;;
48881;SDS011;57063;51.406;-2.402;2022-07-22T13:16:36;11.40;;;5.80;;
48881;SDS011;57063;51.406;-2.402;2022-07-22T13:19:01;15.23;;;6.13;;
48881;SDS011;57063;51.406;-2.402;2022-07-22T13:21:27;10.30;;;5.28;;
48881;SDS011;57063;51.406;-2.402;2022-07-22T13:23:52;9.38;;;4.85;;
48881;SDS011;57063;51.406;-2.402;2022-07-22T13:26:18;16.00;;;5.82;;
48881;SDS011;57063;51.406;-2.402;2022-07-22T13:28:43;27.15;;;9.35;;
48881;SDS011;57063;51.406;-2.402;2022-07-22T13:31:09;15.73;;;6.55;;
48881;SDS011;57063;51.406;-2.402;2022-07-22T13:33:34;11.13;;;5.13;;
48881;SDS011;57063;51.406;-2.402;2022-07-22T13:36:00;12.27;;;5.63;;
48881;SDS011;57063;51.406;-2.402;2022-07-22T13:38:26;15.27;;;6.10;;
48881;SDS011;57063;51.406;-2.402;2022-07-22T13:40:52;12.10;;;5.45;;
48881;SDS011;57063;51.406;-2.402;2022-07-22T13:43:21;12.57;;;5.68;;
48881;SDS011;57063;51.406;-2.402;2022-07-22T13:45:48;11.90;;;5.45;;
48881;SDS011;57063;51.406;-2.402;2022-07-22T13:48:13;9.05;;;4.78;;
48881;SDS011;57063;51.406;-2.402;2022-07-22T13:50:39;20.40;;;6.88;;
48881;SDS011;57063;51.406;-2.402;2022-07-22T13:53:04;14.73;;;8.15;;
48881;SDS011;57063;51.406;-2.402;2022-07-22T13:55:30;16.65;;;6.20;;
48881;SDS011;57063;51.406;-2.402;2022-07-22T13:57:55;11.88;;;6.90;;
48881;SDS011;57063;51.406;-2.402;2022-07-22T14:00:23;11.93;;;5.85;;
48881;SDS011;57063;51.406;-2.402;2022-07-22T14:02:48;12.48;;;6.40;;
48881;SDS011;57063;51.406;-2.402;2022-07-22T14:05:14;12.27;;;6.28;;
48881;SDS011;57063;51.406;-2.402;2022-07-22T14:07:40;8.98;;;5.60;;
48881;SDS011;57063;51.406;-2.402;2022-07-22T14:10:05;11.68;;;6.90;;
48881;SDS011;57063;51.406;-2.402;2022-07-22T14:12:31;12.75;;;6.85;;
48881;SDS011;57063;51.406;-2.402;2022-07-22T14:14:57;11.77;;;6.53;;
48881;SDS011;57063;51.406;-2.402;2022-07-22T14:17:22;12.48;;;6.72;;
48881;SDS011;57063;51.406;-2.402;2022-07-22T14:19:48;13.27;;;7.47;;
48881;SDS011;57063;51.406;-2.402;2022-07-22T14:22:13;9.85;;;5.78;;
48881;SDS011;57063;51.406;-2.402;2022-07-22T14:24:38;10.40;;;6.43;;
48881;SDS011;57063;51.406;-2.402;2022-07-22T14:27:04;10.38;;;5.65;;
48881;SDS011;57063;51.406;-2.402;2022-07-22T14:29:29;19.55;;;8.95;;
48881;SDS011;57063;51.406;-2.402;2022-07-22T14:31:55;10.68;;;7.18;;
48881;SDS011;57063;51.406;-2.402;2022-07-22T14:34:20;9.57;;;7.25;;
48881;SDS011;57063;51.406;-2.402;2022-07-22T14:36:46;13.30;;;7.35;;
48881;SDS011;57063;51.406;-2.402;2022-07-22T14:39:12;9.35;;;7.00;;
48881;SDS011;57063;51.406;-2.402;2022-07-22T14:41:37;12.10;;;7.35;;
48881;SDS011;57063;51.406;-2.402;2022-07-22T14:44:03;10.38;;;8.10;;
48881;SDS011;57063;51.406;-2.402;2022-07-22T14:46:28;11.02;;;7.80;;
48881;SDS011;57063;51.406;-2.402;2022-07-22T14:48:53;13.95;;;7.95;;
48881;SDS011;57063;51.406;-2.402;2022-07-22T14:51:19;12.60;;;8.10;;
48881;SDS011;57063;51.406;-2.402;2022-07-22T14:53:46;12.02;;;8.00;;
48881;SDS011;57063;51.406;-2.402;2022-07-22T14:56:11;11.85;;;8.90;;
48881;SDS011;57063;51.406;-2.402;2022-07-22T14:58:37;14.10;;;8.95;;